sensor_id;sensor_type;location;lat;lon;timestamp;pressure;altitude;pressure_sealevel;temperature;humidity
21100;BME280;10708;50.824;4.408;2022-12-11T00:02:38;100221.84;;;0.97;100.00
21100;BME280;10708;50.824;4.408;2022-12-11T00:07:42;100218.41;;;0.95;100.00
21100;BME280;10708;50.824;4.408;2022-12-11T00:12:44;100215.81;;;0.97;100.00
21100;BME280;10708;50.824;4.408;2022-12-11T00:17:46;100213.22;;;0.95;100.00
21100;BME280;10708;50.824;4.408;2022-12-11T00:22:50;100211.53;;;0.76;100.00
21100;BME280;10708;50.824;4.408;2022-12-11T00:27:52;100212.34;;;0.93;100.00
21100;BME280;10708;50.824;4.408;2022-12-11T00:32:55;100221.00;;;0.94;100.00
21100;BME280;10708;50.824;4.408;2022-12-11T00:37:58;100214.94;;;0.99;100.00
21100;BME280;10708;50.824;4.408;2022-12-11T00:43:01;100213.19;;;1.01;100.00
21100;BME280;10708;50.824;4.408;2022-12-11T00:48:04;100201.94;;;1.07;100.00
21100;BME280;10708;50.824;4.408;2022-12-11T00:53:08;100205.41;;;1.06;100.00
21100;BME280;10708;50.824;4.408;2022-12-11T00:58:11;100201.94;;;1.02;100.00
21100;BME280;10708;50.824;4.408;2022-12-11T01:03:14;100194.16;;;1.05;100.00
21100;BME280;10708;50.824;4.408;2022-12-11T01:08:18;100204.53;;;1.02;100.00
21100;BME280;10708;50.824;4.408;2022-12-11T01:13:20;100195.03;;;1.04;100.00
21100;BME280;10708;50.824;4.408;2022-12-11T01:18:24;100194.16;;;1.02;100.00
21100;BME280;10708;50.824;4.408;2022-12-11T01:23:28;100191.59;;;1.08;100.00
21100;BME280;10708;50.824;4.408;2022-12-11T01:28:30;100195.03;;;1.06;100.00
21100;BME280;10708;50.824;4.408;2022-12-11T01:33:32;100197.63;;;1.07;100.00
21100;BME280;10708;50.824;4.408;2022-12-11T01:38:36;100195.91;;;1.09;100.00
21100;BME280;10708;50.824;4.408;2022-12-11T01:44:01;100200.22;;;1.09;100.00
21100;BME280;10708;50.824;4.408;2022-12-11T01:49:06;100199.31;;;1.10;100.00
21100;BME280;10708;50.824;4.408;2022-12-11T01:54:13;100201.91;;;1.11;100.00
21100;BME280;10708;50.824;4.408;2022-12-11T01:59:21;100201.94;;;1.07;100.00
21100;BME280;10708;50.824;4.408;2022-12-11T02:04:24;100196.75;;;1.08;100.00
21100;BME280;10708;50.824;4.408;2022-12-11T02:09:30;100195.00;;;1.12;100.00
21100;BME280;10708;50.824;4.408;2022-12-11T02:14:38;100190.69;;;1.11;100.00
21100;BME280;10708;50.824;4.408;2022-12-11T02:19:51;100193.28;;;1.17;100.00
21100;BME280;10708;50.824;4.408;2022-12-11T02:25:04;100184.63;;;1.18;100.00
21100;BME280;10708;50.824;4.408;2022-12-11T02:30:13;100192.44;;;1.07;100.00
21100;BME280;10708;50.824;4.408;2022-12-11T02:35:19;100185.50;;;1.17;100.00
21100;BME280;10708;50.824;4.408;2022-12-11T02:40:27;100173.38;;;1.16;100.00
21100;BME280;10708;50.824;4.408;2022-12-11T02:45:33;100176.84;;;1.20;100.00
21100;BME280;10708;50.824;4.408;2022-12-11T02:50:38;100161.28;;;1.18;100.00
21100;BME280;10708;50.824;4.408;2022-12-11T02:55:44;100159.53;;;1.20;100.00
21100;BME280;10708;50.824;4.408;2022-12-11T03:00:48;100156.91;;;1.22;100.00
21100;BME280;10708;50.824;4.408;2022-12-11T03:05:51;100149.13;;;1.22;100.00
21100;BME280;10708;50.824;4.408;2022-12-11T03:10:54;100151.75;;;1.20;100.00
21100;BME280;10708;50.824;4.408;2022-12-11T03:16:04;100137.06;;;1.19;100.00
21100;BME280;10708;50.824;4.408;2022-12-11T03:21:13;100130.16;;;1.20;100.00
21100;BME280;10708;50.824;4.408;2022-12-11T03:26:19;100119.78;;;1.14;100.00
21100;BME280;10708;50.824;4.408;2022-12-11T03:31:30;100121.50;;;1.15;100.00
21100;BME280;10708;50.824;4.408;2022-12-11T03:36:36;100123.25;;;1.11;100.00
21100;BME280;10708;50.824;4.408;2022-12-11T03:41:41;100117.19;;;1.14;100.00
21100;BME280;10708;50.824;4.408;2022-12-11T03:46:47;100117.19;;;1.18;100.00
21100;BME280;10708;50.824;4.408;2022-12-11T03:51:52;100101.63;;;1.12;100.00
21100;BME280;10708;50.824;4.408;2022-12-11T03:56:57;100105.09;;;1.13;100.00
21100;BME280;10708;50.824;4.408;2022-12-11T04:02:02;100102.50;;;1.14;100.00
21100;BME280;10708;50.824;4.408;2022-12-11T04:07:10;100096.44;;;1.14;100.00
21100;BME280;10708;50.824;4.408;2022-12-11T04:12:13;100090.41;;;1.11;100.00
21100;BME280;10708;50.824;4.408;2022-12-11T04:17:16;100079.19;;;1.06;100.00
21100;BME280;10708;50.824;4.408;2022-12-11T04:22:48;100093.84;;;1.10;100.00
21100;BME280;10708;50.824;4.408;2022-12-11T04:28:08;100093.00;;;1.10;100.00
21100;BME280;10708;50.824;4.408;2022-12-11T04:33:11;100090.41;;;1.13;100.00
21100;BME280;10708;50.824;4.408;2022-12-11T04:38:14;100092.13;;;1.11;100.00
21100;BME280;10708;50.824;4.408;2022-12-11T04:43:16;100093.84;;;1.10;100.00
21100;BME280;10708;50.824;4.408;2022-12-11T04:48:19;100093.03;;;1.08;100.00
21100;BME280;10708;50.824;4.408;2022-12-11T04:53:22;100087.84;;;1.08;100.00
21100;BME280;10708;50.824;4.408;2022-12-11T04:58:26;100091.31;;;1.07;100.00
21100;BME280;10708;50.824;4.408;2022-12-11T05:03:30;100087.84;;;1.07;100.00
21100;BME280;10708;50.824;4.408;2022-12-11T05:08:34;100076.56;;;1.11;100.00
21100;BME280;10708;50.824;4.408;2022-12-11T05:13:36;100079.16;;;1.11;100.00
21100;BME280;10708;50.824;4.408;2022-12-11T05:18:40;100082.66;;;1.01;100.00
21100;BME280;10708;50.824;4.408;2022-12-11T05:23:43;100072.28;;;1.01;100.00
21100;BME280;10708;50.824;4.408;2022-12-11T05:28:47;100078.34;;;1.04;100.00
21100;BME280;10708;50.824;4.408;2022-12-11T05:33:53;100074.00;;;1.05;100.00
21100;BME280;10708;50.824;4.408;2022-12-11T05:38:57;100062.78;;;1.09;100.00
21100;BME280;10708;50.824;4.408;2022-12-11T05:43:59;100067.97;;;1.09;100.00
21100;BME280;10708;50.824;4.408;2022-12-11T05:49:03;100066.22;;;1.09;100.00
21100;BME280;10708;50.824;4.408;2022-12-11T05:54:05;100059.28;;;1.11;100.00
21100;BME280;10708;50.824;4.408;2022-12-11T05:59:08;100066.22;;;1.08;100.00
21100;BME280;10708;50.824;4.408;2022-12-11T06:04:12;100069.66;;;1.10;100.00
21100;BME280;10708;50.824;4.408;2022-12-11T06:09:15;100067.97;;;1.07;100.00
21100;BME280;10708;50.824;4.408;2022-12-11T06:14:17;100067.97;;;1.09;100.00
21100;BME280;10708;50.824;4.408;2022-12-11T06:19:21;100061.03;;;1.06;100.00
21100;BME280;10708;50.824;4.408;2022-12-11T06:24:24;100065.38;;;1.06;100.00
21100;BME280;10708;50.824;4.408;2022-12-11T06:29:26;100043.75;;;1.04;100.00
21100;BME280;10708;50.824;4.408;2022-12-11T06:34:30;100048.94;;;1.05;100.00
21100;BME280;10708;50.824;4.408;2022-12-11T06:39:33;100052.47;;;0.94;100.00
21100;BME280;10708;50.824;4.408;2022-12-11T06:44:35;100057.69;;;0.89;100.00
21100;BME280;10708;50.824;4.408;2022-12-11T06:49:39;100064.56;;;0.93;100.00
21100;BME280;10708;50.824;4.408;2022-12-11T06:54:44;100057.69;;;0.83;100.00
21100;BME280;10708;50.824;4.408;2022-12-11T06:59:48;100060.28;;;0.85;100.00
21100;BME280;10708;50.824;4.408;2022-12-11T07:04:51;100059.41;;;0.87;100.00
21100;BME280;10708;50.824;4.408;2022-12-11T07:09:54;100059.41;;;0.87;100.00
21100;BME280;10708;50.824;4.408;2022-12-11T07:14:57;100078.38;;;0.91;100.00
21100;BME280;10708;50.824;4.408;2022-12-11T07:20:01;100076.69;;;0.87;100.00
21100;BME280;10708;50.824;4.408;2022-12-11T07:25:05;100083.63;;;0.83;100.00
21100;BME280;10708;50.824;4.408;2022-12-11T07:30:09;100088.84;;;0.76;100.00
21100;BME280;10708;50.824;4.408;2022-12-11T07:35:13;100090.53;;;0.81;100.00
21100;BME280;10708;50.824;4.408;2022-12-11T07:40:16;100086.22;;;0.82;100.00
21100;BME280;10708;50.824;4.408;2022-12-11T07:45:18;100096.63;;;0.71;100.00
21100;BME280;10708;50.824;4.408;2022-12-11T07:50:22;100089.66;;;0.87;100.00
21100;BME280;10708;50.824;4.408;2022-12-11T07:55:25;100091.44;;;0.79;100.00
21100;BME280;10708;50.824;4.408;2022-12-11T08:00:27;100098.25;;;0.95;100.00
21100;BME280;10708;50.824;4.408;2022-12-11T08:05:31;100092.25;;;0.82;100.00
21100;BME280;10708;50.824;4.408;2022-12-11T08:10:34;100097.44;;;0.82;100.00
21100;BME280;10708;50.824;4.408;2022-12-11T08:15:37;100097.41;;;0.91;100.00
21100;BME280;10708;50.824;4.408;2022-12-11T08:20:40;100093.06;;;0.95;100.00
21100;BME280;10708;50.824;4.408;2022-12-11T08:25:43;100092.22;;;0.96;100.00
21100;BME280;10708;50.824;4.408;2022-12-11T08:30:45;100095.66;;;0.93;100.00
21100;BME280;10708;50.824;4.408;2022-12-11T08:35:49;100093.06;;;0.92;100.00
21100;BME280;10708;50.824;4.408;2022-12-11T08:40:52;100092.22;;;0.94;100.00
21100;BME280;10708;50.824;4.408;2022-12-11T08:45:54;100087.88;;;0.98;100.00
21100;BME280;10708;50.824;4.408;2022-12-11T08:50:59;100087.03;;;0.93;100.00
21100;BME280;10708;50.824;4.408;2022-12-11T08:56:02;100093.06;;;0.99;100.00
21100;BME280;10708;50.824;4.408;2022-12-11T09:01:06;100087.94;;;0.86;100.00
21100;BME280;10708;50.824;4.408;2022-12-11T09:06:13;100094.00;;;0.82;100.00
21100;BME280;10708;50.824;4.408;2022-12-11T09:11:18;100090.53;;;0.89;100.00
21100;BME280;10708;50.824;4.408;2022-12-11T09:16:22;100084.47;;;0.85;100.00
21100;BME280;10708;50.824;4.408;2022-12-11T09:21:28;100091.34;;;0.94;100.00
21100;BME280;10708;50.824;4.408;2022-12-11T09:26:33;100084.44;;;0.97;100.00
21100;BME280;10708;50.824;4.408;2022-12-11T09:31:36;100077.47;;;1.01;100.00
21100;BME280;10708;50.824;4.408;2022-12-11T09:36:41;100074.88;;;1.05;100.00
21100;BME280;10708;50.824;4.408;2022-12-11T09:41:48;100086.97;;;1.09;100.00
21100;BME280;10708;50.824;4.408;2022-12-11T09:46:54;100090.38;;;1.19;100.00
21100;BME280;10708;50.824;4.408;2022-12-11T09:52:07;100082.66;;;1.08;100.00
21100;BME280;10708;50.824;4.408;2022-12-11T09:57:24;100073.91;;;1.23;100.00
21100;BME280;10708;50.824;4.408;2022-12-11T10:02:36;100074.75;;;1.30;100.00
21100;BME280;10708;50.824;4.408;2022-12-11T10:07:46;100069.50;;;1.37;100.00
21100;BME280;10708;50.824;4.408;2022-12-11T10:12:54;100067.78;;;1.39;100.00
21100;BME280;10708;50.824;4.408;2022-12-11T10:18:04;100063.38;;;1.47;100.00
21100;BME280;10708;50.824;4.408;2022-12-11T10:23:16;100059.88;;;1.56;100.00
21100;BME280;10708;50.824;4.408;2022-12-11T10:28:20;100050.44;;;1.43;100.00
21100;BME280;10708;50.824;4.408;2022-12-11T10:33:28;100047.84;;;1.43;100.00
21100;BME280;10708;50.824;4.408;2022-12-11T10:38:41;100057.22;;;1.61;100.00
21100;BME280;10708;50.824;4.408;2022-12-11T10:43:46;100051.28;;;1.50;100.00
21100;BME280;10708;50.824;4.408;2022-12-11T10:48:51;100046.84;;;1.61;100.00
21100;BME280;10708;50.824;4.408;2022-12-11T10:53:57;100033.00;;;1.62;100.00
21100;BME280;10708;50.824;4.408;2022-12-11T10:59:03;100026.22;;;1.45;100.00
21100;BME280;10708;50.824;4.408;2022-12-11T11:04:14;100021.72;;;1.66;100.00
21100;BME280;10708;50.824;4.408;2022-12-11T11:09:30;100015.81;;;1.48;100.00
21100;BME280;10708;50.824;4.408;2022-12-11T11:14:33;100012.22;;;1.63;100.00
21100;BME280;10708;50.824;4.408;2022-12-11T11:19:37;100012.31;;;1.53;100.00
21100;BME280;10708;50.824;4.408;2022-12-11T11:24:43;100014.88;;;1.56;100.00
21100;BME280;10708;50.824;4.408;2022-12-11T11:29:47;100010.56;;;1.52;100.00
21100;BME280;10708;50.824;4.408;2022-12-11T11:35:04;100014.13;;;1.40;100.00
21100;BME280;10708;50.824;4.408;2022-12-11T11:40:14;100013.19;;;1.50;100.00
21100;BME280;10708;50.824;4.408;2022-12-11T11:45:21;100003.81;;;1.31;100.00
21100;BME280;10708;50.824;4.408;2022-12-11T11:50:30;99989.78;;;1.59;100.00
21100;BME280;10708;50.824;4.408;2022-12-11T11:55:46;99985.28;;;1.76;100.00
21100;BME280;10708;50.824;4.408;2022-12-11T12:00:52;99980.88;;;1.86;100.00
21100;BME280;10708;50.824;4.408;2022-12-11T12:05:58;99985.84;;;2.07;100.00
21100;BME280;10708;50.824;4.408;2022-12-11T12:11:13;99986.53;;;2.21;100.00
21100;BME280;10708;50.824;4.408;2022-12-11T12:16:25;99984.09;;;2.09;100.00
21100;BME280;10708;50.824;4.408;2022-12-11T12:21:35;99970.94;;;2.21;100.00
21100;BME280;10708;50.824;4.408;2022-12-11T12:26:42;99981.63;;;1.99;100.00
21100;BME280;10708;50.824;4.408;2022-12-11T12:31:54;99973.72;;;2.08;100.00
21100;BME280;10708;50.824;4.408;2022-12-11T12:37:06;99980.59;;;2.10;100.00
21100;BME280;10708;50.824;4.408;2022-12-11T12:42:21;99984.16;;;2.02;100.00
21100;BME280;10708;50.824;4.408;2022-12-11T12:47:30;99985.13;;;1.93;100.00
21100;BME280;10708;50.824;4.408;2022-12-11T12:52:35;99986.09;;;1.80;100.00
21100;BME280;10708;50.824;4.408;2022-12-11T12:57:43;99987.03;;;1.73;100.00
21100;BME280;10708;50.824;4.408;2022-12-11T13:02:47;99983.63;;;1.69;100.00
21100;BME280;10708;50.824;4.408;2022-12-11T13:07:53;99996.63;;;1.66;100.00
21100;BME280;10708;50.824;4.408;2022-12-11T13:12:58;99989.69;;;1.67;100.00
21100;BME280;10708;50.824;4.408;2022-12-11T13:18:03;99986.19;;;1.71;100.00
21100;BME280;10708;50.824;4.408;2022-12-11T13:23:15;99982.78;;;1.67;100.00
21100;BME280;10708;50.824;4.408;2022-12-11T13:28:23;99982.78;;;1.66;100.00
21100;BME280;10708;50.824;4.408;2022-12-11T13:33:26;99981.06;;;1.62;100.00
21100;BME280;10708;50.824;4.408;2022-12-11T13:38:30;99981.06;;;1.62;100.00
21100;BME280;10708;50.824;4.408;2022-12-11T13:43:36;99982.00;;;1.55;100.00
21100;BME280;10708;50.824;4.408;2022-12-11T13:48:45;99983.81;;;1.50;100.00
21100;BME280;10708;50.824;4.408;2022-12-11T13:54:01;99986.34;;;1.51;100.00
21100;BME280;10708;50.824;4.408;2022-12-11T13:59:19;99982.88;;;1.52;100.00
21100;BME280;10708;50.824;4.408;2022-12-11T14:04:25;99980.31;;;1.51;100.00
21100;BME280;10708;50.824;4.408;2022-12-11T14:09:28;99978.63;;;1.46;100.00
21100;BME280;10708;50.824;4.408;2022-12-11T14:14:39;99977.78;;;1.44;100.00
21100;BME280;10708;50.824;4.408;2022-12-11T14:19:46;99982.09;;;1.47;100.00
21100;BME280;10708;50.824;4.408;2022-12-11T14:24:50;99980.34;;;1.46;100.00
21100;BME280;10708;50.824;4.408;2022-12-11T14:29:57;99982.94;;;1.49;100.00
21100;BME280;10708;50.824;4.408;2022-12-11T14:35:23;99976.91;;;1.47;100.00
21100;BME280;10708;50.824;4.408;2022-12-11T14:40:30;99989.88;;;1.45;100.00
21100;BME280;10708;50.824;4.408;2022-12-11T14:45:40;99991.59;;;1.48;100.00
21100;BME280;10708;50.824;4.408;2022-12-11T14:50:46;99990.72;;;1.49;100.00
21100;BME280;10708;50.824;4.408;2022-12-11T14:55:52;99988.97;;;1.51;100.00
21100;BME280;10708;50.824;4.408;2022-12-11T15:00:58;99985.50;;;1.51;100.00
21100;BME280;10708;50.824;4.408;2022-12-11T15:06:17;99993.34;;;1.44;100.00
21100;BME280;10708;50.824;4.408;2022-12-11T15:11:30;100000.25;;;1.44;100.00
21100;BME280;10708;50.824;4.408;2022-12-11T15:16:37;99995.88;;;1.51;100.00
21100;BME280;10708;50.824;4.408;2022-12-11T15:21:41;99988.94;;;1.53;100.00
21100;BME280;10708;50.824;4.408;2022-12-11T15:26:46;99983.75;;;1.51;100.00
21100;BME280;10708;50.824;4.408;2022-12-11T15:32:00;99993.34;;;1.46;100.00
21100;BME280;10708;50.824;4.408;2022-12-11T15:37:03;99992.41;;;1.52;100.00
21100;BME280;10708;50.824;4.408;2022-12-11T15:42:05;99991.53;;;1.53;100.00
21100;BME280;10708;50.824;4.408;2022-12-11T15:47:13;99992.41;;;1.50;100.00
21100;BME280;10708;50.824;4.408;2022-12-11T15:52:16;100003.69;;;1.49;100.00
21100;BME280;10708;50.824;4.408;2022-12-11T15:57:20;99994.19;;;1.46;100.00
21100;BME280;10708;50.824;4.408;2022-12-11T16:02:25;100002.84;;;1.48;100.00
21100;BME280;10708;50.824;4.408;2022-12-11T16:07:27;100001.94;;;1.51;100.00
21100;BME280;10708;50.824;4.408;2022-12-11T16:12:30;100002.81;;;1.50;100.00
21100;BME280;10708;50.824;4.408;2022-12-11T16:17:34;99990.69;;;1.51;100.00
21100;BME280;10708;50.824;4.408;2022-12-11T16:22:36;99994.19;;;1.50;100.00
21100;BME280;10708;50.824;4.408;2022-12-11T16:27:39;99993.28;;;1.51;100.00
21100;BME280;10708;50.824;4.408;2022-12-11T16:32:43;99996.78;;;1.50;100.00
21100;BME280;10708;50.824;4.408;2022-12-11T16:37:47;99996.78;;;1.50;100.00
21100;BME280;10708;50.824;4.408;2022-12-11T16:42:50;99995.06;;;1.48;100.00
21100;BME280;10708;50.824;4.408;2022-12-11T16:47:54;100001.13;;;1.44;100.00
21100;BME280;10708;50.824;4.408;2022-12-11T16:52:57;99993.28;;;1.51;100.00
21100;BME280;10708;50.824;4.408;2022-12-11T16:57:59;99994.19;;;1.50;100.00
21100;BME280;10708;50.824;4.408;2022-12-11T17:03:03;99988.16;;;1.44;100.00
21100;BME280;10708;50.824;4.408;2022-12-11T17:08:05;99996.88;;;1.37;100.00
21100;BME280;10708;50.824;4.408;2022-12-11T17:13:08;99990.91;;;1.26;100.00
21100;BME280;10708;50.824;4.408;2022-12-11T17:18:12;99993.56;;;1.11;100.00
21100;BME280;10708;50.824;4.408;2022-12-11T17:23:15;99994.50;;;1.01;100.00
21100;BME280;10708;50.824;4.408;2022-12-11T17:28:19;99990.28;;;0.88;100.00
21100;BME280;10708;50.824;4.408;2022-12-11T17:33:23;99992.13;;;0.67;100.00
21100;BME280;10708;50.824;4.408;2022-12-11T17:38:25;99996.47;;;0.55;100.00
21100;BME280;10708;50.824;4.408;2022-12-11T17:43:28;99993.06;;;0.42;100.00
21100;BME280;10708;50.824;4.408;2022-12-11T17:48:32;99984.50;;;0.29;100.00
21100;BME280;10708;50.824;4.408;2022-12-11T17:53:35;99988.00;;;0.18;100.00
21100;BME280;10708;50.824;4.408;2022-12-11T17:58:40;99981.13;;;0.06;100.00
21100;BME280;10708;50.824;4.408;2022-12-11T18:03:44;99988.03;;;-0.04;100.00
21100;BME280;10708;50.824;4.408;2022-12-11T18:08:47;99988.91;;;-0.18;100.00
21100;BME280;10708;50.824;4.408;2022-12-11T18:13:51;99992.38;;;-0.25;100.00
21100;BME280;10708;50.824;4.408;2022-12-11T18:18:55;100002.75;;;-0.33;100.00
21100;BME280;10708;50.824;4.408;2022-12-11T18:23:58;100001.91;;;-0.43;100.00
21100;BME280;10708;50.824;4.408;2022-12-11T18:29:01;100009.66;;;-0.46;100.00
21100;BME280;10708;50.824;4.408;2022-12-11T18:34:06;100004.47;;;-0.53;100.00
21100;BME280;10708;50.824;4.408;2022-12-11T18:39:15;99999.28;;;-0.56;100.00
21100;BME280;10708;50.824;4.408;2022-12-11T18:44:21;100006.19;;;-0.60;100.00
21100;BME280;10708;50.824;4.408;2022-12-11T18:49:25;100008.78;;;-0.64;100.00
21100;BME280;10708;50.824;4.408;2022-12-11T18:54:29;100000.16;;;-0.69;100.00
21100;BME280;10708;50.824;4.408;2022-12-11T18:59:32;100001.03;;;-0.73;100.00
21100;BME280;10708;50.824;4.408;2022-12-11T19:04:36;100007.91;;;-0.79;100.00
21100;BME280;10708;50.824;4.408;2022-12-11T19:09:42;100016.50;;;-0.80;100.00
21100;BME280;10708;50.824;4.408;2022-12-11T19:14:48;100008.75;;;-0.84;100.00
21100;BME280;10708;50.824;4.408;2022-12-11T19:19:51;100007.03;;;-0.87;100.00
21100;BME280;10708;50.824;4.408;2022-12-11T19:24:54;100004.44;;;-0.88;100.00
21100;BME280;10708;50.824;4.408;2022-12-11T19:29:56;99998.41;;;-0.95;100.00
21100;BME280;10708;50.824;4.408;2022-12-11T19:35:01;100000.97;;;-0.98;100.00
21100;BME280;10708;50.824;4.408;2022-12-11T19:40:05;100005.28;;;-1.01;100.00
21100;BME280;10708;50.824;4.408;2022-12-11T19:45:10;100003.56;;;-1.04;100.00
21100;BME280;10708;50.824;4.408;2022-12-11T19:50:33;100007.84;;;-1.07;100.00
21100;BME280;10708;50.824;4.408;2022-12-11T19:55:36;99993.22;;;-1.12;100.00
21100;BME280;10708;50.824;4.408;2022-12-11T20:06:02;100010.41;;;-1.18;100.00
21100;BME280;10708;50.824;4.408;2022-12-11T20:11:14;100009.53;;;-1.22;100.00
21100;BME280;10708;50.824;4.408;2022-12-11T20:27:13;100011.25;;;-1.27;100.00
21100;BME280;10708;50.824;4.408;2022-12-11T20:32:24;100012.97;;;-1.27;100.00
21100;BME280;10708;50.824;4.408;2022-12-11T20:37:55;100010.38;;;-1.29;100.00
21100;BME280;10708;50.824;4.408;2022-12-11T20:43:02;100019.00;;;-1.27;100.00
21100;BME280;10708;50.824;4.408;2022-12-11T21:04:31;100020.78;;;-1.10;100.00
21100;BME280;10708;50.824;4.408;2022-12-11T21:25:29;100031.16;;;-0.92;100.00
21100;BME280;10708;50.824;4.408;2022-12-11T21:35:55;100032.03;;;-0.83;100.00
21100;BME280;10708;50.824;4.408;2022-12-11T21:46:21;100024.28;;;-0.81;100.00
21100;BME280;10708;50.824;4.408;2022-12-11T21:51:38;100014.81;;;-0.82;100.00
21100;BME280;10708;50.824;4.408;2022-12-11T22:02:03;100024.28;;;-0.81;100.00
21100;BME280;10708;50.824;4.408;2022-12-11T22:07:06;100024.25;;;-0.80;100.00
21100;BME280;10708;50.824;4.408;2022-12-11T22:12:10;100022.53;;;-0.87;100.00
21100;BME280;10708;50.824;4.408;2022-12-11T22:17:23;100021.66;;;-0.89;100.00
21100;BME280;10708;50.824;4.408;2022-12-11T22:22:25;100026.84;;;-0.89;100.00
21100;BME280;10708;50.824;4.408;2022-12-11T22:27:28;100019.09;;;-0.90;100.00
21100;BME280;10708;50.824;4.408;2022-12-11T22:32:32;100026.84;;;-0.92;100.00
21100;BME280;10708;50.824;4.408;2022-12-11T22:37:34;100032.88;;;-0.93;100.00
21100;BME280;10708;50.824;4.408;2022-12-11T22:42:37;100032.03;;;-0.92;100.00
21100;BME280;10708;50.824;4.408;2022-12-11T22:47:41;100043.22;;;-0.93;100.00
21100;BME280;10708;50.824;4.408;2022-12-11T22:52:43;100040.66;;;-0.91;100.00
21100;BME280;10708;50.824;4.408;2022-12-11T22:57:45;100046.69;;;-0.91;100.00
21100;BME280;10708;50.824;4.408;2022-12-11T23:02:49;100046.63;;;-0.97;100.00
21100;BME280;10708;50.824;4.408;2022-12-11T23:07:52;100048.38;;;-0.88;100.00
21100;BME280;10708;50.824;4.408;2022-12-11T23:12:55;100049.25;;;-0.88;100.00
21100;BME280;10708;50.824;4.408;2022-12-11T23:17:59;100050.13;;;-0.86;100.00
21100;BME280;10708;50.824;4.408;2022-12-11T23:23:01;100055.28;;;-0.84;100.00
21100;BME280;10708;50.824;4.408;2022-12-11T23:28:04;100054.44;;;-0.85;100.00
21100;BME280;10708;50.824;4.408;2022-12-11T23:33:08;100053.56;;;-0.84;100.00
21100;BME280;10708;50.824;4.408;2022-12-11T23:38:11;100049.25;;;-0.88;100.00
21100;BME280;10708;50.824;4.408;2022-12-11T23:43:13;100039.78;;;-0.90;100.00
21100;BME280;10708;50.824;4.408;2022-12-11T23:48:17;100044.94;;;-0.89;100.00
21100;BME280;10708;50.824;4.408;2022-12-11T23:53:20;100048.38;;;-0.90;100.00
21100;BME280;10708;50.824;4.408;2022-12-11T23:58:22;100051.81;;;-0.89;100.00
